createdAt,value
2022-11-23T00:02:56.474Z,404.39
2022-11-23T00:06:05.526Z,413.88
2022-11-23T00:09:14.580Z,405.91
2022-11-23T00:12:20.536Z,403.62
2022-11-23T00:15:27.277Z,413.41
2022-11-23T00:18:35.877Z,432.39
2022-11-23T00:21:42.847Z,425.25
2022-11-23T00:24:48.781Z,426.32
2022-11-23T00:27:55.540Z,422.84
2022-11-23T00:31:02.117Z,420.95
2022-11-23T00:34:11.446Z,427.04
2022-11-23T00:37:19.409Z,437.72
2022-11-23T00:40:26.165Z,437.52
2022-11-23T00:43:33.154Z,436.07
2022-11-23T00:46:39.873Z,426.51
2022-11-23T00:49:48.402Z,432.62
2022-11-23T00:52:57.664Z,440.98
2022-11-23T00:56:03.868Z,433.32
2022-11-23T00:59:10.721Z,459.01
2022-11-23T01:02:17.473Z,444.79
2022-11-23T01:05:26.772Z,447.45
2022-11-23T01:08:32.698Z,486.08
2022-11-23T01:11:39.394Z,523.49
2022-11-23T01:14:45.375Z,488.70
2022-11-23T01:17:52.099Z,484.25
2022-11-23T01:21:03.741Z,485.28
2022-11-23T01:24:16.062Z,406.43
2022-11-23T01:27:22.130Z,413.44
2022-11-23T01:30:30.678Z,401.32
2022-11-23T01:33:37.378Z,397.43
2022-11-23T01:36:47.679Z,404.60
2022-11-23T01:39:53.695Z,405.93
2022-11-23T01:43:04.010Z,414.06
2022-11-23T01:46:12.213Z,417.24
2022-11-23T01:49:19.712Z,411.37
2022-11-23T01:52:30.224Z,416.37
2022-11-23T01:55:39.822Z,412.60
2022-11-23T01:58:54.967Z,415.63
2022-11-23T02:02:02.214Z,422.67
2022-11-23T02:05:10.826Z,424.26
2022-11-23T02:08:23.051Z,429.44
2022-11-23T02:11:29.116Z,423.60
2022-11-23T02:14:36.401Z,424.84
2022-11-23T02:17:42.543Z,440.88
2022-11-23T02:20:50.188Z,441.43
2022-11-23T02:24:12.943Z,433.06
2022-11-23T02:27:24.559Z,429.01
2022-11-23T02:30:35.006Z,424.59
2022-11-23T02:33:42.074Z,436.31
2022-11-23T02:36:52.177Z,438.09
2022-11-23T02:40:07.630Z,430.47
2022-11-23T02:46:37.892Z,435.34
2022-11-23T02:49:45.958Z,438.32
2022-11-23T02:52:52.634Z,431.08
2022-11-23T02:55:58.485Z,444.18
2022-11-23T02:59:08.166Z,442.71
2022-11-23T03:02:14.369Z,434.82
2022-11-23T03:05:21.467Z,430.45
2022-11-23T03:08:30.898Z,429.92
2022-11-23T03:11:39.602Z,429.28
2022-11-23T03:14:48.204Z,423.74
2022-11-23T03:17:57.076Z,429.82
2022-11-23T03:21:07.146Z,427.90
2022-11-23T03:24:16.500Z,433.56
2022-11-23T03:27:24.322Z,417.79
2022-11-23T03:30:33.977Z,408.36
2022-11-23T03:33:41.886Z,401.19
2022-11-23T03:36:49.131Z,410.00
2022-11-23T03:39:55.209Z,414.60
2022-11-23T03:43:01.988Z,423.35
2022-11-23T03:46:10.734Z,429.66
2022-11-23T03:49:17.590Z,439.93
2022-11-23T03:52:24.107Z,450.02
2022-11-23T03:55:31.166Z,439.60
2022-11-23T03:58:37.882Z,452.10
2022-11-23T04:01:50.814Z,446.03
2022-11-23T04:05:01.506Z,438.06
2022-11-23T04:08:28.550Z,408.99
2022-11-23T04:11:35.845Z,407.23
2022-11-23T04:14:42.960Z,443.23
2022-11-23T04:17:51.741Z,433.88
2022-11-23T04:20:58.747Z,440.43
2022-11-23T04:24:04.965Z,440.81
2022-11-23T04:27:14.536Z,427.33
2022-11-23T04:30:22.278Z,436.20
2022-11-23T04:33:32.020Z,441.32
2022-11-23T04:36:39.032Z,439.33
2022-11-23T04:39:48.234Z,419.55
2022-11-23T04:43:02.109Z,408.34
2022-11-23T04:46:13.757Z,406.90
2022-11-23T04:49:23.149Z,407.83
2022-11-23T04:52:30.180Z,411.16
2022-11-23T04:55:37.117Z,418.96
2022-11-23T04:58:45.011Z,421.27
2022-11-23T05:01:52.422Z,428.68
2022-11-23T05:05:20.962Z,433.26
2022-11-23T05:08:26.954Z,420.47
2022-11-23T05:11:42.163Z,398.01
2022-11-23T05:14:49.531Z,385.34
2022-11-23T05:18:06.574Z,373.45
2022-11-23T05:21:16.987Z,370.80
2022-11-23T05:24:23.979Z,364.65
2022-11-23T05:27:46.005Z,368.91
2022-11-23T05:30:54.093Z,359.05
2022-11-23T05:34:00.135Z,363.10
2022-11-23T05:37:19.995Z,364.45
2022-11-23T05:40:48.128Z,386.01
2022-11-23T05:43:55.600Z,389.94
2022-11-23T05:47:05.786Z,413.34
2022-11-23T05:50:14.377Z,417.59
2022-11-23T05:53:28.284Z,424.84
2022-11-23T05:56:42.351Z,429.40
2022-11-23T06:00:02.157Z,429.92
2022-11-23T06:03:19.329Z,431.08
2022-11-23T06:06:25.775Z,441.50
2022-11-23T06:09:36.422Z,452.56
2022-11-23T06:12:46.780Z,467.41
2022-11-23T06:15:57.320Z,520.63
2022-11-23T06:19:10.780Z,543.45
2022-11-23T06:22:22.559Z,516.35
2022-11-23T06:25:38.953Z,502.75
2022-11-23T06:29:04.332Z,500.37
2022-11-23T06:32:10.342Z,478.63
2022-11-23T06:35:17.877Z,484.60
2022-11-23T06:38:27.154Z,501.04
2022-11-23T06:41:51.939Z,529.19
2022-11-23T06:44:57.963Z,458.35
2022-11-23T06:48:04.898Z,442.92
2022-11-23T06:51:14.306Z,393.38
2022-11-23T06:54:24.607Z,379.61
2022-11-23T06:57:36.031Z,374.85
2022-11-23T07:00:43.382Z,373.45
2022-11-23T07:03:50.365Z,394.77
2022-11-23T07:07:06.566Z,387.04
2022-11-23T07:10:21.093Z,412.81
2022-11-23T07:13:37.807Z,429.78
2022-11-23T07:16:43.946Z,461.57
2022-11-23T07:20:04.880Z,444.47
2022-11-23T07:23:25.955Z,414.52
2022-11-23T07:26:48.974Z,428.80
2022-11-23T07:30:14.698Z,486.93
2022-11-23T07:33:35.587Z,562.31
2022-11-23T07:37:01.840Z,563.41
2022-11-23T07:40:25.107Z,479.28
2022-11-23T07:43:45.930Z,447.82
2022-11-23T07:47:10.380Z,457.92
2022-11-23T07:50:32.492Z,517.70
2022-11-23T07:53:39.597Z,614.90
2022-11-23T07:56:45.547Z,551.19
2022-11-23T07:59:52.263Z,500.43
2022-11-23T08:06:28.337Z,472.13
2022-11-23T08:09:34.344Z,380.99
2022-11-23T08:12:41.173Z,365.59
2022-11-23T08:15:53.277Z,418.63
2022-11-23T08:19:03.597Z,421.84
2022-11-23T08:22:12.370Z,466.72
2022-11-23T08:25:22.399Z,463.23
2022-11-23T08:28:28.474Z,472.67
2022-11-23T08:31:35.322Z,438.39
2022-11-23T08:34:46.903Z,397.48
2022-11-23T08:37:53.824Z,400.63
2022-11-23T08:41:02.520Z,369.27
2022-11-23T08:44:12.431Z,363.25
2022-11-23T08:47:19.837Z,352.61
2022-11-23T08:50:29.485Z,360.16
2022-11-23T08:53:36.778Z,366.56
2022-11-23T08:56:43.531Z,393.96
2022-11-23T08:59:49.486Z,423.15
2022-11-23T09:02:58.465Z,436.02
2022-11-23T09:06:07.644Z,431.73
2022-11-23T09:09:14.706Z,411.85
2022-11-23T09:12:20.921Z,397.75
2022-11-23T09:15:27.696Z,419.51
2022-11-23T09:18:35.678Z,409.30
2022-11-23T09:21:45.238Z,372.28
2022-11-23T09:24:51.103Z,370.17
2022-11-23T09:28:02.160Z,384.66
2022-11-23T09:31:08.995Z,396.41
2022-11-23T09:34:16.516Z,362.63
2022-11-23T09:37:26.149Z,363.42
2022-11-23T09:40:39.432Z,368.42
2022-11-23T09:44:05.065Z,360.03
2022-11-23T09:47:46.702Z,359.22
2022-11-23T09:50:59.624Z,373.19
2022-11-23T09:54:27.801Z,394.37
2022-11-23T09:57:39.229Z,379.71
2022-11-23T10:00:53.656Z,407.48
2022-11-23T10:04:01.504Z,380.37
2022-11-23T10:07:35.735Z,370.62
2022-11-23T10:10:55.808Z,388.07
2022-11-23T10:14:29.900Z,380.52
2022-11-23T10:18:03.046Z,422.16
2022-11-23T10:21:30.172Z,422.34
2022-11-23T10:24:45.527Z,447.11
2022-11-23T10:28:03.337Z,460.36
2022-11-23T10:31:19.635Z,402.11
2022-11-23T10:34:49.672Z,362.03
2022-11-23T10:38:03.759Z,429.60
2022-11-23T10:41:16.021Z,442.67
2022-11-23T10:44:37.129Z,426.08
2022-11-23T10:47:52.283Z,443.70
2022-11-23T10:51:22.686Z,405.39
2022-11-23T10:54:35.317Z,407.08
2022-11-23T10:57:48.324Z,404.08
2022-11-23T11:01:03.876Z,355.48
2022-11-23T11:04:27.779Z,355.43
2022-11-23T11:07:35.194Z,306.84
2022-11-23T11:10:50.310Z,345.59
2022-11-23T11:14:08.670Z,331.24
2022-11-23T11:17:30.819Z,292.67
2022-11-23T11:20:39.547Z,304.33
2022-11-23T11:23:49.733Z,317.75
2022-11-23T11:27:04.538Z,320.24
2022-11-23T11:30:25.597Z,341.03
2022-11-23T11:33:49.715Z,323.85
2022-11-23T11:37:09.135Z,320.14
2022-11-23T11:40:29.079Z,314.92
2022-11-23T11:43:44.015Z,263.09
2022-11-23T11:47:00.971Z,271.23
2022-11-23T11:50:31.389Z,263.77
2022-11-23T11:53:52.485Z,270.40
2022-11-23T11:57:07.926Z,261.68
2022-11-23T12:00:20.824Z,275.09
2022-11-23T12:03:44.487Z,264.95
2022-11-23T12:07:07.338Z,266.90
2022-11-23T12:10:21.888Z,276.25
2022-11-23T12:13:35.110Z,279.07
2022-11-23T12:20:45.393Z,316.57
2022-11-23T12:24:13.885Z,314.50
2022-11-23T12:27:48.259Z,298.02
2022-11-23T12:31:13.565Z,279.15
2022-11-23T12:34:51.017Z,270.11
2022-11-23T12:38:20.743Z,278.01
2022-11-23T12:41:45.276Z,342.38
2022-11-23T12:45:20.442Z,321.51
2022-11-23T12:48:49.041Z,319.84
2022-11-23T12:52:13.452Z,299.18
2022-11-23T12:55:35.995Z,288.32
2022-11-23T12:58:51.042Z,289.32
2022-11-23T13:02:06.924Z,281.99
2022-11-23T13:06:15.088Z,273.99
2022-11-23T13:09:50.539Z,281.00
2022-11-23T13:13:40.700Z,292.47
2022-11-23T13:17:24.358Z,274.02
2022-11-23T13:21:07.294Z,258.54
2022-11-23T13:24:35.278Z,263.30
2022-11-23T13:27:57.464Z,279.00
2022-11-23T13:31:25.646Z,298.51
2022-11-23T13:34:51.326Z,321.92
2022-11-23T13:38:27.387Z,325.48
2022-11-23T13:42:03.673Z,288.78
2022-11-23T13:45:28.863Z,293.49
2022-11-23T13:49:00.050Z,304.00
2022-11-23T13:52:36.574Z,328.03
2022-11-23T13:55:43.604Z,292.30
2022-11-23T13:58:57.573Z,285.50
2022-11-23T14:02:31.218Z,273.53
2022-11-23T14:06:01.963Z,284.43
2022-11-23T14:09:25.211Z,289.74
2022-11-23T14:12:46.028Z,282.21
2022-11-23T14:16:03.100Z,278.09
2022-11-23T14:19:31.435Z,269.20
2022-11-23T14:23:03.364Z,277.04
2022-11-23T14:26:36.647Z,301.55
2022-11-23T14:30:22.838Z,333.67
2022-11-23T14:33:45.859Z,411.91
2022-11-23T14:37:05.860Z,309.95
2022-11-23T14:40:33.837Z,280.83
2022-11-23T14:43:45.824Z,277.71
2022-11-23T14:47:06.647Z,319.49
2022-11-23T14:50:27.735Z,334.50
2022-11-23T14:53:46.722Z,344.05
2022-11-23T14:57:00.857Z,301.94
2022-11-23T15:00:28.950Z,324.80
2022-11-23T15:03:50.308Z,342.97
2022-11-23T15:07:07.008Z,346.62
2022-11-23T15:10:33.912Z,305.57
2022-11-23T15:13:48.626Z,329.44
2022-11-23T15:16:57.285Z,322.60
2022-11-23T15:20:07.362Z,362.60
2022-11-23T15:23:25.242Z,356.78
2022-11-23T15:26:48.037Z,358.25
2022-11-23T15:29:58.584Z,369.64
2022-11-23T15:33:14.455Z,452.92
2022-11-23T15:36:28.228Z,590.85
2022-11-23T15:39:35.723Z,470.63
2022-11-23T15:42:42.736Z,383.38
2022-11-23T15:46:09.087Z,334.59
2022-11-23T15:49:20.856Z,308.02
2022-11-23T15:52:30.259Z,319.32
2022-11-23T15:55:37.769Z,321.81
2022-11-23T15:58:54.454Z,342.60
2022-11-23T16:02:03.353Z,343.85
2022-11-23T16:05:22.510Z,313.99
2022-11-23T16:08:28.851Z,320.94
2022-11-23T16:11:39.023Z,275.98
2022-11-23T16:14:45.061Z,412.80
2022-11-23T16:17:52.177Z,474.10
2022-11-23T16:21:05.732Z,419.54
2022-11-23T16:24:26.086Z,288.59
2022-11-23T16:27:32.218Z,302.35
2022-11-23T16:30:42.853Z,327.71
2022-11-23T16:33:48.855Z,338.63
2022-11-23T16:36:59.488Z,321.14
2022-11-23T16:40:05.522Z,344.25
2022-11-23T16:43:15.038Z,374.16
2022-11-23T16:46:21.003Z,415.87
2022-11-23T16:49:27.959Z,441.43
2022-11-23T16:52:39.550Z,448.44
2022-11-23T16:55:47.276Z,538.40
2022-11-23T16:58:55.492Z,523.40
2022-11-23T17:02:02.474Z,530.32
2022-11-23T17:05:17.586Z,495.14
2022-11-23T17:08:27.047Z,529.56
2022-11-23T17:11:33.279Z,471.59
2022-11-23T17:14:42.879Z,442.90
2022-11-23T17:17:51.797Z,414.38
2022-11-23T17:20:59.235Z,333.11
2022-11-23T17:24:09.003Z,661.03
2022-11-23T17:27:21.670Z,509.25
2022-11-23T17:30:27.877Z,409.97
2022-11-23T17:33:34.784Z,367.06
2022-11-23T17:36:42.768Z,371.73
2022-11-23T17:39:53.494Z,303.00
2022-11-23T17:43:00.509Z,294.48
2022-11-23T17:46:08.016Z,286.69
2022-11-23T17:49:18.361Z,278.79
2022-11-23T17:52:27.453Z,281.19
2022-11-23T17:55:36.438Z,283.43
2022-11-23T17:58:43.293Z,300.24
2022-11-23T18:01:49.420Z,321.93
2022-11-23T18:04:56.417Z,336.00
2022-11-23T18:08:02.466Z,322.64
2022-11-23T18:11:12.500Z,327.66
2022-11-23T18:14:19.484Z,362.44
2022-11-23T18:17:26.519Z,322.12
2022-11-23T18:20:32.604Z,374.79
2022-11-23T18:23:40.200Z,419.17
2022-11-23T18:26:49.182Z,376.43
2022-11-23T18:29:56.187Z,351.00
2022-11-23T18:33:02.377Z,340.02
2022-11-23T18:36:13.059Z,333.18
2022-11-23T18:39:19.096Z,382.37
2022-11-23T18:42:28.633Z,370.30
2022-11-23T18:46:10.464Z,306.59
2022-11-23T18:49:17.353Z,296.73
2022-11-23T18:52:23.331Z,311.42
2022-11-23T18:55:30.459Z,342.50
2022-11-23T18:58:37.144Z,339.29
2022-11-23T19:01:46.566Z,336.20
2022-11-23T19:04:52.609Z,328.20
2022-11-23T19:08:05.777Z,334.45
2022-11-23T19:11:17.736Z,315.93
2022-11-23T19:14:25.266Z,305.06
2022-11-23T19:17:34.378Z,298.03
2022-11-23T19:20:42.892Z,315.42
2022-11-23T19:23:54.079Z,338.33
2022-11-23T19:27:01.006Z,322.58
2022-11-23T19:30:09.622Z,297.65
2022-11-23T19:33:20.049Z,281.68
2022-11-23T19:36:28.763Z,311.91
2022-11-23T19:39:36.398Z,336.34
2022-11-23T19:42:42.882Z,300.66
2022-11-23T19:45:57.811Z,292.49
2022-11-23T19:49:08.608Z,295.37
2022-11-23T19:52:15.715Z,330.79
2022-11-23T19:55:22.113Z,328.89
2022-11-23T19:58:31.271Z,329.45
2022-11-23T20:01:37.950Z,336.64
2022-11-23T20:04:47.574Z,327.80
2022-11-23T20:07:54.451Z,325.41
2022-11-23T20:11:01.426Z,336.31
2022-11-23T20:14:08.050Z,332.01
2022-11-23T20:17:15.948Z,324.16
2022-11-23T20:20:24.605Z,343.29
2022-11-23T20:23:32.524Z,335.63
2022-11-23T20:26:39.342Z,338.95
2022-11-23T20:29:46.962Z,350.59
2022-11-23T20:32:54.078Z,363.48
2022-11-23T20:36:17.115Z,363.03
2022-11-23T20:39:23.676Z,365.34
2022-11-23T20:42:32.043Z,375.02
2022-11-23T20:45:38.152Z,386.04
2022-11-23T20:48:48.651Z,415.00
2022-11-23T20:51:57.365Z,385.62
2022-11-23T20:55:04.398Z,340.61
2022-11-23T20:58:10.379Z,386.14
2022-11-23T21:01:19.939Z,375.74
2022-11-23T21:04:26.300Z,374.28
2022-11-23T21:07:35.882Z,381.04
2022-11-23T21:10:54.339Z,353.03
2022-11-23T21:14:16.932Z,365.40
2022-11-23T21:17:24.228Z,346.55
2022-11-23T21:20:36.281Z,324.23
2022-11-23T21:23:49.503Z,304.08
2022-11-23T21:26:59.343Z,303.21
2022-11-23T21:30:05.852Z,295.23
2022-11-23T21:33:12.716Z,293.75
2022-11-23T21:36:18.994Z,293.76
2022-11-23T21:39:30.243Z,293.54
2022-11-23T21:42:37.444Z,291.25
2022-11-23T21:45:44.887Z,273.41
2022-11-23T21:48:50.908Z,271.48
2022-11-23T21:51:57.804Z,261.03
2022-11-23T21:55:06.585Z,258.65
2022-11-23T21:58:13.453Z,310.68
2022-11-23T22:01:23.154Z,290.84
2022-11-23T22:04:30.204Z,257.12
2022-11-23T22:07:36.914Z,260.39
2022-11-23T22:10:46.401Z,257.94
2022-11-23T22:13:58.134Z,259.32
2022-11-23T22:17:06.441Z,261.14
2022-11-23T22:20:14.648Z,282.36
2022-11-23T22:23:21.478Z,277.98
2022-11-23T22:26:30.980Z,281.72
2022-11-23T22:29:37.899Z,278.08
2022-11-23T22:32:46.279Z,267.26
2022-11-23T22:35:53.413Z,293.52
2022-11-23T22:39:02.330Z,302.18
2022-11-23T22:42:11.993Z,266.45
2022-11-23T22:45:18.254Z,260.06
2022-11-23T22:48:25.075Z,288.16
2022-11-23T22:51:33.065Z,289.01
2022-11-23T22:54:40.004Z,292.75
2022-11-23T22:57:48.584Z,302.62
2022-11-23T23:00:56.299Z,316.10
2022-11-23T23:04:04.601Z,280.53
2022-11-23T23:07:11.509Z,285.50
2022-11-23T23:10:17.667Z,315.42
2022-11-23T23:13:27.207Z,321.51
2022-11-23T23:16:33.686Z,292.67
2022-11-23T23:19:40.656Z,300.48
2022-11-23T23:22:47.273Z,268.99
2022-11-23T23:25:57.233Z,265.97
2022-11-23T23:29:05.840Z,268.99
2022-11-23T23:32:13.745Z,278.91
2022-11-23T23:35:19.970Z,275.79
2022-11-23T23:38:30.140Z,272.52
2022-11-23T23:41:36.453Z,274.74
2022-11-23T23:44:45.862Z,271.40
2022-11-23T23:47:51.780Z,278.79
2022-11-23T23:50:59.125Z,285.14
2022-11-23T23:54:05.132Z,273.04
2022-11-23T23:57:12.706Z,281.27
